Hlavní strana
METAR-TAF:

METAR-TAF

Letiště :

Ronneby, Švédsko

zeměpisná šířka: 56-16N, zeměpisná délka: 015-17E, výška: 58 m

Aktuální stav počasí

Zpráva byla vytvořena před 35 minutami, v 02:50 UTC
Bezvětří
Teplota -2°C
Vlhkost vzduchu 100%
Tlak 1018 hPa
Viditelnost: 0300 m
slabé sněžení

METAR: ESDF 210250Z AUTO 00000KT 0300 R01/0900N R19/1000N -SN OVC001/// M02/M02 Q1018

Čas: 04:25 (03:25 UTC)

Předpověď počasí

Zpráva byla vytvořena před 6 hodinami a 55 minutami, v 20:30 UTC
Předpověď platná od 20 v 21 UTC do 20 v 23 UTC
Západoseverozápadní vítr 2 kt
Viditelnost 10 km a více
Žádná oblačnost pod 1500 m, nevyskytují se cumulonimby.
Pravděpodobnost 40%
od 20 v 21 UTC do 20 v 23 UTC
Viditelnost: 1200 m
Oblačno až skoro zataženo ve výšce 300 ft
chuchvalce mlhy

TAF: ESDF 202030Z 2021/2023 29002KT CAVOK PROB40 2021/2023 1200 BCFG BKN003

Stav a předpovědi počasí z více než 4 000 letišť (zprávy METAR a TAF).

Červené a žluté tečky na mapě představují dostupné meteorologické stanice.

Když kurzor umístíte na tečku, zobrazí se název stanice.

Pak kliknutím zobrazíte stav a předpověď počasí.

Chcete-li změnit mapu, kliknutím na zelené tlačítko se znaménkem +mapu přiblížíte, kliknutím na zelené tlačítko se znaménkem – mapu oddálíte a kliknutím na zelené šipky přejdete na sousední mapy.


METAR-TAF: